sensor_id;sensor_type;location;lat;lon;timestamp;temperature;humidity
1297;DHT22;641;48.492;9.184;2023-06-05T00:01:37;14.10;54.10
1297;DHT22;641;48.492;9.184;2023-06-05T00:04:03;14.00;54.10
1297;DHT22;641;48.492;9.184;2023-06-05T00:06:29;14.00;54.40
1297;DHT22;641;48.492;9.184;2023-06-05T00:08:54;14.00;54.50
1297;DHT22;641;48.492;9.184;2023-06-05T00:11:20;13.90;55.20
1297;DHT22;641;48.492;9.184;2023-06-05T00:13:47;13.90;55.80
1297;DHT22;641;48.492;9.184;2023-06-05T00:16:13;13.70;55.40
1297;DHT22;641;48.492;9.184;2023-06-05T00:18:38;13.80;55.50
1297;DHT22;641;48.492;9.184;2023-06-05T00:21:04;13.70;56.20
1297;DHT22;641;48.492;9.184;2023-06-05T00:23:30;13.70;56.60
1297;DHT22;641;48.492;9.184;2023-06-05T00:25:57;13.50;56.70
1297;DHT22;641;48.492;9.184;2023-06-05T00:28:22;13.50;56.80
1297;DHT22;641;48.492;9.184;2023-06-05T00:30:49;13.40;56.90
1297;DHT22;641;48.492;9.184;2023-06-05T00:33:15;13.40;57.90
1297;DHT22;641;48.492;9.184;2023-06-05T00:35:40;13.30;57.10
1297;DHT22;641;48.492;9.184;2023-06-05T00:38:06;13.30;57.10
1297;DHT22;641;48.492;9.184;2023-06-05T00:40:32;13.30;57.00
1297;DHT22;641;48.492;9.184;2023-06-05T00:42:58;13.30;57.30
1297;DHT22;641;48.492;9.184;2023-06-05T00:45:24;13.20;57.20
1297;DHT22;641;48.492;9.184;2023-06-05T00:47:50;13.20;57.80
1297;DHT22;641;48.492;9.184;2023-06-05T00:50:16;13.10;58.30
1297;DHT22;641;48.492;9.184;2023-06-05T00:52:43;13.10;58.30
1297;DHT22;641;48.492;9.184;2023-06-05T00:55:10;13.10;58.50
1297;DHT22;641;48.492;9.184;2023-06-05T00:57:37;13.10;58.50
1297;DHT22;641;48.492;9.184;2023-06-05T01:00:05;13.10;58.40
1297;DHT22;641;48.492;9.184;2023-06-05T01:02:33;13.00;58.60
1297;DHT22;641;48.492;9.184;2023-06-05T01:05:00;13.10;58.60
1297;DHT22;641;48.492;9.184;2023-06-05T01:07:26;13.10;58.90
1297;DHT22;641;48.492;9.184;2023-06-05T01:09:54;13.10;58.30
1297;DHT22;641;48.492;9.184;2023-06-05T01:12:20;13.00;58.20
1297;DHT22;641;48.492;9.184;2023-06-05T01:14:49;12.90;58.80
1297;DHT22;641;48.492;9.184;2023-06-05T01:17:17;12.80;59.30
1297;DHT22;641;48.492;9.184;2023-06-05T01:19:45;12.80;59.00
1297;DHT22;641;48.492;9.184;2023-06-05T01:22:11;12.90;59.40
1297;DHT22;641;48.492;9.184;2023-06-05T01:24:41;12.80;58.80
1297;DHT22;641;48.492;9.184;2023-06-05T01:27:25;12.70;58.60
1297;DHT22;641;48.492;9.184;2023-06-05T01:30:01;12.60;59.50
1297;DHT22;641;48.492;9.184;2023-06-05T01:35:19;12.50;59.40
1297;DHT22;641;48.492;9.184;2023-06-05T01:37:47;12.70;61.80
1297;DHT22;641;48.492;9.184;2023-06-05T01:40:20;12.80;59.80
1297;DHT22;641;48.492;9.184;2023-06-05T01:42:46;12.80;60.00
1297;DHT22;641;48.492;9.184;2023-06-05T01:45:14;12.70;59.60
1297;DHT22;641;48.492;9.184;2023-06-05T01:47:41;12.60;59.70
1297;DHT22;641;48.492;9.184;2023-06-05T01:50:08;12.60;59.50
1297;DHT22;641;48.492;9.184;2023-06-05T01:52:35;12.50;59.50
1297;DHT22;641;48.492;9.184;2023-06-05T01:55:03;12.40;59.50
1297;DHT22;641;48.492;9.184;2023-06-05T01:57:30;12.30;60.00
1297;DHT22;641;48.492;9.184;2023-06-05T01:59:56;12.40;61.90
1297;DHT22;641;48.492;9.184;2023-06-05T02:02:22;12.40;60.50
1297;DHT22;641;48.492;9.184;2023-06-05T02:04:48;12.40;60.70
1297;DHT22;641;48.492;9.184;2023-06-05T02:07:14;12.30;61.30
1297;DHT22;641;48.492;9.184;2023-06-05T02:09:42;12.30;60.50
1297;DHT22;641;48.492;9.184;2023-06-05T02:12:08;12.10;61.20
1297;DHT22;641;48.492;9.184;2023-06-05T02:14:33;12.30;63.00
1297;DHT22;641;48.492;9.184;2023-06-05T02:17:03;12.30;61.00
1297;DHT22;641;48.492;9.184;2023-06-05T02:19:32;12.10;61.30
1297;DHT22;641;48.492;9.184;2023-06-05T02:21:57;12.00;62.00
1297;DHT22;641;48.492;9.184;2023-06-05T02:24:23;12.00;61.50
1297;DHT22;641;48.492;9.184;2023-06-05T02:26:50;12.00;61.90
1297;DHT22;641;48.492;9.184;2023-06-05T02:29:16;11.90;61.80
1297;DHT22;641;48.492;9.184;2023-06-05T02:31:42;11.90;62.50
1297;DHT22;641;48.492;9.184;2023-06-05T02:34:07;11.90;62.40
1297;DHT22;641;48.492;9.184;2023-06-05T02:36:33;11.80;63.10
1297;DHT22;641;48.492;9.184;2023-06-05T02:39:01;11.70;63.50
1297;DHT22;641;48.492;9.184;2023-06-05T02:41:27;11.80;64.00
1297;DHT22;641;48.492;9.184;2023-06-05T02:43:53;11.70;63.80
1297;DHT22;641;48.492;9.184;2023-06-05T02:46:20;11.80;63.70
1297;DHT22;641;48.492;9.184;2023-06-05T02:48:47;11.90;64.30
1297;DHT22;641;48.492;9.184;2023-06-05T02:51:12;11.70;63.80
1297;DHT22;641;48.492;9.184;2023-06-05T02:53:38;11.60;64.90
1297;DHT22;641;48.492;9.184;2023-06-05T02:56:04;11.40;65.70
1297;DHT22;641;48.492;9.184;2023-06-05T02:58:30;11.40;65.40
1297;DHT22;641;48.492;9.184;2023-06-05T03:00:59;11.40;65.70
1297;DHT22;641;48.492;9.184;2023-06-05T03:03:32;11.40;64.90
1297;DHT22;641;48.492;9.184;2023-06-05T03:05:59;11.50;65.40
1297;DHT22;641;48.492;9.184;2023-06-05T03:08:35;11.50;64.80
1297;DHT22;641;48.492;9.184;2023-06-05T03:11:04;11.50;65.30
1297;DHT22;641;48.492;9.184;2023-06-05T03:13:30;11.40;64.50
1297;DHT22;641;48.492;9.184;2023-06-05T03:15:56;11.30;64.80
1297;DHT22;641;48.492;9.184;2023-06-05T03:18:23;11.20;65.20
1297;DHT22;641;48.492;9.184;2023-06-05T03:20:50;11.10;65.60
1297;DHT22;641;48.492;9.184;2023-06-05T03:23:16;11.30;66.80
1297;DHT22;641;48.492;9.184;2023-06-05T03:25:42;11.30;66.00
1297;DHT22;641;48.492;9.184;2023-06-05T03:28:08;11.30;65.50
1297;DHT22;641;48.492;9.184;2023-06-05T03:30:33;11.20;65.60
1297;DHT22;641;48.492;9.184;2023-06-05T03:32:59;11.10;66.40
1297;DHT22;641;48.492;9.184;2023-06-05T03:35:25;11.00;66.50
1297;DHT22;641;48.492;9.184;2023-06-05T03:37:51;11.00;66.50
1297;DHT22;641;48.492;9.184;2023-06-05T03:40:17;11.20;68.30
1297;DHT22;641;48.492;9.184;2023-06-05T03:42:42;11.30;68.30
1297;DHT22;641;48.492;9.184;2023-06-05T03:45:08;11.30;66.60
1297;DHT22;641;48.492;9.184;2023-06-05T03:47:34;11.60;66.40
1297;DHT22;641;48.492;9.184;2023-06-05T03:50:00;11.40;65.80
1297;DHT22;641;48.492;9.184;2023-06-05T03:52:28;11.40;65.80
1297;DHT22;641;48.492;9.184;2023-06-05T03:54:54;11.30;66.00
1297;DHT22;641;48.492;9.184;2023-06-05T03:57:21;11.40;66.60
1297;DHT22;641;48.492;9.184;2023-06-05T03:59:47;11.40;66.40
1297;DHT22;641;48.492;9.184;2023-06-05T04:02:13;11.40;67.50
1297;DHT22;641;48.492;9.184;2023-06-05T04:04:39;11.70;66.10
1297;DHT22;641;48.492;9.184;2023-06-05T04:07:05;11.60;66.30
1297;DHT22;641;48.492;9.184;2023-06-05T04:09:31;11.60;66.00
1297;DHT22;641;48.492;9.184;2023-06-05T04:11:57;11.60;66.40
1297;DHT22;641;48.492;9.184;2023-06-05T04:14:24;11.60;66.00
1297;DHT22;641;48.492;9.184;2023-06-05T04:16:50;11.70;66.40
1297;DHT22;641;48.492;9.184;2023-06-05T04:19:15;11.80;65.40
1297;DHT22;641;48.492;9.184;2023-06-05T04:21:41;12.00;66.50
1297;DHT22;641;48.492;9.184;2023-06-05T04:24:08;12.10;65.20
1297;DHT22;641;48.492;9.184;2023-06-05T04:26:35;12.10;64.30
1297;DHT22;641;48.492;9.184;2023-06-05T04:29:02;12.10;64.30
1297;DHT22;641;48.492;9.184;2023-06-05T04:31:31;12.20;65.40
1297;DHT22;641;48.492;9.184;2023-06-05T04:33:57;12.20;65.10
1297;DHT22;641;48.492;9.184;2023-06-05T04:36:24;12.00;65.00
1297;DHT22;641;48.492;9.184;2023-06-05T04:38:49;12.10;65.50
1297;DHT22;641;48.492;9.184;2023-06-05T04:41:15;12.20;65.20
1297;DHT22;641;48.492;9.184;2023-06-05T04:43:40;12.00;64.40
1297;DHT22;641;48.492;9.184;2023-06-05T04:46:06;12.20;65.80
1297;DHT22;641;48.492;9.184;2023-06-05T04:48:32;12.20;64.60
1297;DHT22;641;48.492;9.184;2023-06-05T04:51:00;12.30;64.10
1297;DHT22;641;48.492;9.184;2023-06-05T04:53:25;12.10;64.10
1297;DHT22;641;48.492;9.184;2023-06-05T04:55:54;12.00;64.60
1297;DHT22;641;48.492;9.184;2023-06-05T04:58:20;11.90;65.30
1297;DHT22;641;48.492;9.184;2023-06-05T05:00:47;11.70;66.00
1297;DHT22;641;48.492;9.184;2023-06-05T05:03:14;11.80;66.40
1297;DHT22;641;48.492;9.184;2023-06-05T05:05:40;11.90;65.70
1297;DHT22;641;48.492;9.184;2023-06-05T05:08:05;11.90;65.50
1297;DHT22;641;48.492;9.184;2023-06-05T05:10:31;12.00;65.40
1297;DHT22;641;48.492;9.184;2023-06-05T05:12:57;12.00;64.80
1297;DHT22;641;48.492;9.184;2023-06-05T05:15:27;12.10;64.20
1297;DHT22;641;48.492;9.184;2023-06-05T05:17:52;12.20;64.00
1297;DHT22;641;48.492;9.184;2023-06-05T05:20:18;12.30;63.60
1297;DHT22;641;48.492;9.184;2023-06-05T05:22:44;12.30;64.30
1297;DHT22;641;48.492;9.184;2023-06-05T05:25:10;12.30;64.40
1297;DHT22;641;48.492;9.184;2023-06-05T05:27:36;12.30;64.50
1297;DHT22;641;48.492;9.184;2023-06-05T05:30:02;12.20;64.70
1297;DHT22;641;48.492;9.184;2023-06-05T05:32:28;12.20;65.50
1297;DHT22;641;48.492;9.184;2023-06-05T05:34:53;12.20;65.40
1297;DHT22;641;48.492;9.184;2023-06-05T05:37:19;12.40;65.00
1297;DHT22;641;48.492;9.184;2023-06-05T05:39:44;12.40;63.40
1297;DHT22;641;48.492;9.184;2023-06-05T05:42:10;12.40;63.10
1297;DHT22;641;48.492;9.184;2023-06-05T05:44:36;12.60;63.60
1297;DHT22;641;48.492;9.184;2023-06-05T05:47:01;12.80;63.40
1297;DHT22;641;48.492;9.184;2023-06-05T05:49:27;13.10;62.30
1297;DHT22;641;48.492;9.184;2023-06-05T05:51:53;13.40;61.90
1297;DHT22;641;48.492;9.184;2023-06-05T05:54:18;13.40;60.70
1297;DHT22;641;48.492;9.184;2023-06-05T05:56:44;13.40;60.80
1297;DHT22;641;48.492;9.184;2023-06-05T05:59:09;13.40;59.70
1297;DHT22;641;48.492;9.184;2023-06-05T06:01:35;13.50;58.10
1297;DHT22;641;48.492;9.184;2023-06-05T06:04:01;13.70;58.40
1297;DHT22;641;48.492;9.184;2023-06-05T06:06:27;13.70;58.30
1297;DHT22;641;48.492;9.184;2023-06-05T06:08:54;13.90;58.70
1297;DHT22;641;48.492;9.184;2023-06-05T06:11:19;13.90;58.80
1297;DHT22;641;48.492;9.184;2023-06-05T06:13:45;13.90;58.40
1297;DHT22;641;48.492;9.184;2023-06-05T06:16:10;14.00;59.60
1297;DHT22;641;48.492;9.184;2023-06-05T06:18:36;14.30;59.30
1297;DHT22;641;48.492;9.184;2023-06-05T06:21:02;14.30;58.80
1297;DHT22;641;48.492;9.184;2023-06-05T06:23:30;14.20;58.10
1297;DHT22;641;48.492;9.184;2023-06-05T06:25:55;14.30;57.50
1297;DHT22;641;48.492;9.184;2023-06-05T06:28:21;14.40;58.60
1297;DHT22;641;48.492;9.184;2023-06-05T06:30:47;14.40;56.90
1297;DHT22;641;48.492;9.184;2023-06-05T06:33:12;14.40;57.50
1297;DHT22;641;48.492;9.184;2023-06-05T06:35:38;14.50;56.80
1297;DHT22;641;48.492;9.184;2023-06-05T06:38:04;14.50;55.50
1297;DHT22;641;48.492;9.184;2023-06-05T06:40:30;14.70;56.20
1297;DHT22;641;48.492;9.184;2023-06-05T06:42:56;14.70;56.10
1297;DHT22;641;48.492;9.184;2023-06-05T06:45:22;15.00;56.40
1297;DHT22;641;48.492;9.184;2023-06-05T06:47:48;15.20;55.90
1297;DHT22;641;48.492;9.184;2023-06-05T06:50:14;15.30;55.10
1297;DHT22;641;48.492;9.184;2023-06-05T06:52:39;15.50;54.30
1297;DHT22;641;48.492;9.184;2023-06-05T06:55:06;15.60;54.20
1297;DHT22;641;48.492;9.184;2023-06-05T06:57:32;15.60;54.40
1297;DHT22;641;48.492;9.184;2023-06-05T06:59:57;15.60;53.80
1297;DHT22;641;48.492;9.184;2023-06-05T07:02:24;15.70;53.10
1297;DHT22;641;48.492;9.184;2023-06-05T07:04:49;15.70;53.20
1297;DHT22;641;48.492;9.184;2023-06-05T07:07:16;15.70;53.80
1297;DHT22;641;48.492;9.184;2023-06-05T07:09:43;15.80;54.50
1297;DHT22;641;48.492;9.184;2023-06-05T07:12:10;16.10;54.00
1297;DHT22;641;48.492;9.184;2023-06-05T07:14:37;16.40;52.40
1297;DHT22;641;48.492;9.184;2023-06-05T07:17:03;16.50;52.90
1297;DHT22;641;48.492;9.184;2023-06-05T07:19:30;16.60;52.50
1297;DHT22;641;48.492;9.184;2023-06-05T07:21:57;16.80;52.00
1297;DHT22;641;48.492;9.184;2023-06-05T07:24:24;16.70;51.70
1297;DHT22;641;48.492;9.184;2023-06-05T07:26:51;16.70;50.50
1297;DHT22;641;48.492;9.184;2023-06-05T07:29:17;16.70;50.80
1297;DHT22;641;48.492;9.184;2023-06-05T07:31:44;16.50;51.00
1297;DHT22;641;48.492;9.184;2023-06-05T07:34:10;16.70;51.40
1297;DHT22;641;48.492;9.184;2023-06-05T07:36:38;16.90;50.70
1297;DHT22;641;48.492;9.184;2023-06-05T07:39:04;16.90;51.30
1297;DHT22;641;48.492;9.184;2023-06-05T07:41:30;17.00;50.10
1297;DHT22;641;48.492;9.184;2023-06-05T07:43:55;17.20;51.10
1297;DHT22;641;48.492;9.184;2023-06-05T07:46:21;17.50;51.10
1297;DHT22;641;48.492;9.184;2023-06-05T07:48:46;17.60;50.40
1297;DHT22;641;48.492;9.184;2023-06-05T07:51:12;17.80;50.70
1297;DHT22;641;48.492;9.184;2023-06-05T07:53:37;17.90;49.80
1297;DHT22;641;48.492;9.184;2023-06-05T07:56:03;17.80;49.30
1297;DHT22;641;48.492;9.184;2023-06-05T07:58:29;17.80;50.40
1297;DHT22;641;48.492;9.184;2023-06-05T08:00:54;17.80;51.10
1297;DHT22;641;48.492;9.184;2023-06-05T08:03:22;18.00;50.30
1297;DHT22;641;48.492;9.184;2023-06-05T08:05:52;17.90;49.80
1297;DHT22;641;48.492;9.184;2023-06-05T08:08:17;18.00;49.90
1297;DHT22;641;48.492;9.184;2023-06-05T08:10:44;18.40;49.70
1297;DHT22;641;48.492;9.184;2023-06-05T08:13:10;18.60;48.30
1297;DHT22;641;48.492;9.184;2023-06-05T08:15:36;18.80;48.40
1297;DHT22;641;48.492;9.184;2023-06-05T08:18:10;18.80;48.10
1297;DHT22;641;48.492;9.184;2023-06-05T08:20:36;19.00;49.20
1297;DHT22;641;48.492;9.184;2023-06-05T08:23:02;18.80;48.20
1297;DHT22;641;48.492;9.184;2023-06-05T08:25:30;19.00;49.00
1297;DHT22;641;48.492;9.184;2023-06-05T08:27:56;18.70;48.20
1297;DHT22;641;48.492;9.184;2023-06-05T08:30:21;18.90;48.70
1297;DHT22;641;48.492;9.184;2023-06-05T08:32:47;19.10;50.00
1297;DHT22;641;48.492;9.184;2023-06-05T08:35:13;19.30;49.80
1297;DHT22;641;48.492;9.184;2023-06-05T08:37:39;19.30;49.10
1297;DHT22;641;48.492;9.184;2023-06-05T08:40:05;19.40;48.90
1297;DHT22;641;48.492;9.184;2023-06-05T08:42:36;19.50;49.70
1297;DHT22;641;48.492;9.184;2023-06-05T08:45:07;19.60;49.90
1297;DHT22;641;48.492;9.184;2023-06-05T08:47:35;19.30;49.60
1297;DHT22;641;48.492;9.184;2023-06-05T08:50:03;19.60;49.70
1297;DHT22;641;48.492;9.184;2023-06-05T08:52:33;19.80;50.10
1297;DHT22;641;48.492;9.184;2023-06-05T08:55:00;20.10;50.40
1297;DHT22;641;48.492;9.184;2023-06-05T08:57:27;20.20;48.00
1297;DHT22;641;48.492;9.184;2023-06-05T08:59:53;20.30;48.90
1297;DHT22;641;48.492;9.184;2023-06-05T09:02:19;20.50;48.30
1297;DHT22;641;48.492;9.184;2023-06-05T09:04:45;20.60;48.20
1297;DHT22;641;48.492;9.184;2023-06-05T09:07:11;20.70;49.30
1297;DHT22;641;48.492;9.184;2023-06-05T09:09:37;20.80;49.40
1297;DHT22;641;48.492;9.184;2023-06-05T09:12:04;20.90;49.20
1297;DHT22;641;48.492;9.184;2023-06-05T09:14:31;21.00;48.80
1297;DHT22;641;48.492;9.184;2023-06-05T09:16:57;21.00;49.00
1297;DHT22;641;48.492;9.184;2023-06-05T09:19:23;21.20;48.90
1297;DHT22;641;48.492;9.184;2023-06-05T09:21:54;21.30;49.50
1297;DHT22;641;48.492;9.184;2023-06-05T09:24:21;21.50;49.30
1297;DHT22;641;48.492;9.184;2023-06-05T09:27:00;21.50;49.10
1297;DHT22;641;48.492;9.184;2023-06-05T09:29:34;21.70;49.00
1297;DHT22;641;48.492;9.184;2023-06-05T09:32:08;21.60;48.20
1297;DHT22;641;48.492;9.184;2023-06-05T09:34:36;21.60;48.20
1297;DHT22;641;48.492;9.184;2023-06-05T09:37:06;21.60;49.70
1297;DHT22;641;48.492;9.184;2023-06-05T09:39:34;21.70;48.40
1297;DHT22;641;48.492;9.184;2023-06-05T09:42:00;21.80;48.90
1297;DHT22;641;48.492;9.184;2023-06-05T09:44:27;21.70;49.10
1297;DHT22;641;48.492;9.184;2023-06-05T09:46:56;21.90;48.40
1297;DHT22;641;48.492;9.184;2023-06-05T09:49:26;21.90;49.40
1297;DHT22;641;48.492;9.184;2023-06-05T09:51:52;22.00;49.60
1297;DHT22;641;48.492;9.184;2023-06-05T09:54:19;22.00;47.90
1297;DHT22;641;48.492;9.184;2023-06-05T09:56:49;22.00;49.00
1297;DHT22;641;48.492;9.184;2023-06-05T09:59:20;22.00;49.60
1297;DHT22;641;48.492;9.184;2023-06-05T10:01:51;22.30;48.20
1297;DHT22;641;48.492;9.184;2023-06-05T10:04:23;22.60;47.90
1297;DHT22;641;48.492;9.184;2023-06-05T10:06:51;22.90;48.20
1297;DHT22;641;48.492;9.184;2023-06-05T10:09:17;22.90;46.70
1297;DHT22;641;48.492;9.184;2023-06-05T10:11:43;22.70;47.80
1297;DHT22;641;48.492;9.184;2023-06-05T10:14:12;22.70;47.20
1297;DHT22;641;48.492;9.184;2023-06-05T10:16:38;22.90;46.30
1297;DHT22;641;48.492;9.184;2023-06-05T10:19:05;23.20;46.00
1297;DHT22;641;48.492;9.184;2023-06-05T10:21:32;23.00;44.80
1297;DHT22;641;48.492;9.184;2023-06-05T10:32:08;23.20;44.00
1297;DHT22;641;48.492;9.184;2023-06-05T10:40:09;23.30;43.10
1297;DHT22;641;48.492;9.184;2023-06-05T10:42:36;23.50;42.50
1297;DHT22;641;48.492;9.184;2023-06-05T10:45:02;23.40;42.50
1297;DHT22;641;48.492;9.184;2023-06-05T10:52:41;23.00;43.30
1297;DHT22;641;48.492;9.184;2023-06-05T10:55:07;23.10;43.10
1297;DHT22;641;48.492;9.184;2023-06-05T11:00:21;23.20;41.50
1297;DHT22;641;48.492;9.184;2023-06-05T11:02:48;23.00;42.30
1297;DHT22;641;48.492;9.184;2023-06-05T11:05:14;23.10;43.50
1297;DHT22;641;48.492;9.184;2023-06-05T11:07:40;23.20;42.20
1297;DHT22;641;48.492;9.184;2023-06-05T11:15:06;22.70;40.50
1297;DHT22;641;48.492;9.184;2023-06-05T11:17:34;22.60;42.00
1297;DHT22;641;48.492;9.184;2023-06-05T11:20:02;22.80;42.80
1297;DHT22;641;48.492;9.184;2023-06-05T11:22:31;22.90;41.10
1297;DHT22;641;48.492;9.184;2023-06-05T11:30:27;22.80;42.20
1297;DHT22;641;48.492;9.184;2023-06-05T11:32:54;23.00;40.30
1297;DHT22;641;48.492;9.184;2023-06-05T11:35:25;23.10;38.90
1297;DHT22;641;48.492;9.184;2023-06-05T11:38:12;23.20;39.40
1297;DHT22;641;48.492;9.184;2023-06-05T11:40:38;23.40;40.10
1297;DHT22;641;48.492;9.184;2023-06-05T11:43:06;23.50;38.90
1297;DHT22;641;48.492;9.184;2023-06-05T11:45:33;23.60;39.10
1297;DHT22;641;48.492;9.184;2023-06-05T11:48:20;23.80;39.60
1297;DHT22;641;48.492;9.184;2023-06-05T11:53:18;24.20;38.80
1297;DHT22;641;48.492;9.184;2023-06-05T11:55:44;24.40;37.80
1297;DHT22;641;48.492;9.184;2023-06-05T11:58:22;24.40;36.70
1297;DHT22;641;48.492;9.184;2023-06-05T12:00:48;24.50;37.00
1297;DHT22;641;48.492;9.184;2023-06-05T12:03:20;24.40;37.40
1297;DHT22;641;48.492;9.184;2023-06-05T12:05:47;24.40;38.30
1297;DHT22;641;48.492;9.184;2023-06-05T12:08:27;24.40;36.70
1297;DHT22;641;48.492;9.184;2023-06-05T12:10:55;24.40;35.80
1297;DHT22;641;48.492;9.184;2023-06-05T12:13:43;24.50;35.70
1297;DHT22;641;48.492;9.184;2023-06-05T12:16:09;24.50;36.00
1297;DHT22;641;48.492;9.184;2023-06-05T12:18:35;24.20;37.00
1297;DHT22;641;48.492;9.184;2023-06-05T12:21:01;24.20;37.80
1297;DHT22;641;48.492;9.184;2023-06-05T12:23:29;24.40;37.20
1297;DHT22;641;48.492;9.184;2023-06-05T12:26:02;24.50;37.70
1297;DHT22;641;48.492;9.184;2023-06-05T12:28:29;24.40;37.00
1297;DHT22;641;48.492;9.184;2023-06-05T12:30:56;24.20;35.90
1297;DHT22;641;48.492;9.184;2023-06-05T12:33:25;23.90;37.10
1297;DHT22;641;48.492;9.184;2023-06-05T12:36:06;23.90;37.50
1297;DHT22;641;48.492;9.184;2023-06-05T12:38:41;24.20;36.30
1297;DHT22;641;48.492;9.184;2023-06-05T12:41:07;24.40;34.30
1297;DHT22;641;48.492;9.184;2023-06-05T12:43:34;24.50;36.90
1297;DHT22;641;48.492;9.184;2023-06-05T12:46:00;24.50;34.60
1297;DHT22;641;48.492;9.184;2023-06-05T12:48:26;24.50;35.60
1297;DHT22;641;48.492;9.184;2023-06-05T12:50:52;24.60;37.40
1297;DHT22;641;48.492;9.184;2023-06-05T12:53:18;24.20;35.30
1297;DHT22;641;48.492;9.184;2023-06-05T12:55:44;24.20;35.90
1297;DHT22;641;48.492;9.184;2023-06-05T12:58:10;24.20;35.50
1297;DHT22;641;48.492;9.184;2023-06-05T13:00:36;24.00;34.40
1297;DHT22;641;48.492;9.184;2023-06-05T13:03:02;23.90;35.80
1297;DHT22;641;48.492;9.184;2023-06-05T13:05:29;23.90;37.00
1297;DHT22;641;48.492;9.184;2023-06-05T13:07:57;24.00;35.10
1297;DHT22;641;48.492;9.184;2023-06-05T13:10:22;24.10;35.80
1297;DHT22;641;48.492;9.184;2023-06-05T13:12:48;24.40;35.90
1297;DHT22;641;48.492;9.184;2023-06-05T13:15:13;24.60;34.30
1297;DHT22;641;48.492;9.184;2023-06-05T13:17:39;24.70;34.50
1297;DHT22;641;48.492;9.184;2023-06-05T13:20:06;24.90;33.20
1297;DHT22;641;48.492;9.184;2023-06-05T13:22:32;24.90;33.50
1297;DHT22;641;48.492;9.184;2023-06-05T13:24:58;25.00;34.40
1297;DHT22;641;48.492;9.184;2023-06-05T13:27:23;25.00;34.80
1297;DHT22;641;48.492;9.184;2023-06-05T13:29:49;24.90;32.00
1297;DHT22;641;48.492;9.184;2023-06-05T13:32:14;24.60;32.10
1297;DHT22;641;48.492;9.184;2023-06-05T13:34:40;24.50;33.50
1297;DHT22;641;48.492;9.184;2023-06-05T13:37:06;24.50;32.70
1297;DHT22;641;48.492;9.184;2023-06-05T13:39:31;24.70;32.70
1297;DHT22;641;48.492;9.184;2023-06-05T13:41:57;24.80;31.60
1297;DHT22;641;48.492;9.184;2023-06-05T13:44:22;24.90;33.20
1297;DHT22;641;48.492;9.184;2023-06-05T13:46:48;25.00;32.10
1297;DHT22;641;48.492;9.184;2023-06-05T13:49:14;25.10;32.70
1297;DHT22;641;48.492;9.184;2023-06-05T13:51:41;25.10;31.60
1297;DHT22;641;48.492;9.184;2023-06-05T13:54:07;25.10;32.30
1297;DHT22;641;48.492;9.184;2023-06-05T13:56:32;25.30;32.50
1297;DHT22;641;48.492;9.184;2023-06-05T13:58:58;25.20;32.40
1297;DHT22;641;48.492;9.184;2023-06-05T14:01:24;25.30;32.40
1297;DHT22;641;48.492;9.184;2023-06-05T14:03:50;25.50;30.40
1297;DHT22;641;48.492;9.184;2023-06-05T14:06:19;25.50;30.80
1297;DHT22;641;48.492;9.184;2023-06-05T14:08:45;25.40;30.40
1297;DHT22;641;48.492;9.184;2023-06-05T14:11:11;25.50;30.40
1297;DHT22;641;48.492;9.184;2023-06-05T14:13:37;25.50;32.10
1297;DHT22;641;48.492;9.184;2023-06-05T14:16:03;25.50;30.70
1297;DHT22;641;48.492;9.184;2023-06-05T14:18:30;25.60;30.40
1297;DHT22;641;48.492;9.184;2023-06-05T14:20:56;25.70;30.10
1297;DHT22;641;48.492;9.184;2023-06-05T14:23:21;25.70;30.40
1297;DHT22;641;48.492;9.184;2023-06-05T14:25:49;25.70;30.00
1297;DHT22;641;48.492;9.184;2023-06-05T14:28:15;25.80;30.80
1297;DHT22;641;48.492;9.184;2023-06-05T14:30:41;25.90;31.40
1297;DHT22;641;48.492;9.184;2023-06-05T14:33:06;26.00;30.00
1297;DHT22;641;48.492;9.184;2023-06-05T14:35:32;26.10;31.70
1297;DHT22;641;48.492;9.184;2023-06-05T14:37:57;26.10;28.80
1297;DHT22;641;48.492;9.184;2023-06-05T14:40:23;26.10;29.30
1297;DHT22;641;48.492;9.184;2023-06-05T14:42:52;26.20;28.70
1297;DHT22;641;48.492;9.184;2023-06-05T14:45:17;26.10;27.70
1297;DHT22;641;48.492;9.184;2023-06-05T14:47:43;26.30;28.60
1297;DHT22;641;48.492;9.184;2023-06-05T14:50:10;26.40;29.40
1297;DHT22;641;48.492;9.184;2023-06-05T14:52:36;26.90;29.20
1297;DHT22;641;48.492;9.184;2023-06-05T14:55:02;27.10;29.00
1297;DHT22;641;48.492;9.184;2023-06-05T14:57:28;27.00;28.20
1297;DHT22;641;48.492;9.184;2023-06-05T14:59:53;26.80;29.60
1297;DHT22;641;48.492;9.184;2023-06-05T15:02:20;26.90;29.40
1297;DHT22;641;48.492;9.184;2023-06-05T15:04:48;27.10;29.20
1297;DHT22;641;48.492;9.184;2023-06-05T15:07:18;27.50;28.20
1297;DHT22;641;48.492;9.184;2023-06-05T15:09:45;27.90;28.90
1297;DHT22;641;48.492;9.184;2023-06-05T15:12:11;28.40;27.50
1297;DHT22;641;48.492;9.184;2023-06-05T15:14:37;29.00;27.60
1297;DHT22;641;48.492;9.184;2023-06-05T15:17:02;29.80;27.00
1297;DHT22;641;48.492;9.184;2023-06-05T15:19:28;30.90;25.50
1297;DHT22;641;48.492;9.184;2023-06-05T15:21:53;31.50;23.50
1297;DHT22;641;48.492;9.184;2023-06-05T15:24:19;31.50;25.00
1297;DHT22;641;48.492;9.184;2023-06-05T15:26:45;32.50;23.40
1297;DHT22;641;48.492;9.184;2023-06-05T15:29:10;32.50;22.70
1297;DHT22;641;48.492;9.184;2023-06-05T15:31:36;32.00;22.90
1297;DHT22;641;48.492;9.184;2023-06-05T15:34:02;32.00;23.10
1297;DHT22;641;48.492;9.184;2023-06-05T15:36:27;32.00;22.70
1297;DHT22;641;48.492;9.184;2023-06-05T15:38:53;32.60;23.00
1297;DHT22;641;48.492;9.184;2023-06-05T15:41:19;33.00;22.30
1297;DHT22;641;48.492;9.184;2023-06-05T15:43:44;33.20;23.20
1297;DHT22;641;48.492;9.184;2023-06-05T15:46:10;33.60;22.30
1297;DHT22;641;48.492;9.184;2023-06-05T15:48:36;34.00;22.50
1297;DHT22;641;48.492;9.184;2023-06-05T15:51:02;34.10;22.30
1297;DHT22;641;48.492;9.184;2023-06-05T15:53:29;32.80;22.50
1297;DHT22;641;48.492;9.184;2023-06-05T15:55:55;33.20;22.30
1297;DHT22;641;48.492;9.184;2023-06-05T15:58:21;33.40;22.80
1297;DHT22;641;48.492;9.184;2023-06-05T16:00:46;34.00;21.90
1297;DHT22;641;48.492;9.184;2023-06-05T16:03:12;34.10;22.40
1297;DHT22;641;48.492;9.184;2023-06-05T16:05:38;34.10;21.80
1297;DHT22;641;48.492;9.184;2023-06-05T16:08:05;34.20;22.60
1297;DHT22;641;48.492;9.184;2023-06-05T16:10:30;34.00;21.50
1297;DHT22;641;48.492;9.184;2023-06-05T16:12:56;33.90;21.50
1297;DHT22;641;48.492;9.184;2023-06-05T16:15:21;34.00;21.80
1297;DHT22;641;48.492;9.184;2023-06-05T16:17:47;34.20;22.20
1297;DHT22;641;48.492;9.184;2023-06-05T16:20:15;34.30;21.70
1297;DHT22;641;48.492;9.184;2023-06-05T16:22:42;34.20;21.20
1297;DHT22;641;48.492;9.184;2023-06-05T16:25:08;32.70;22.10
1297;DHT22;641;48.492;9.184;2023-06-05T16:27:33;32.20;22.60
1297;DHT22;641;48.492;9.184;2023-06-05T16:29:59;32.00;23.60
1297;DHT22;641;48.492;9.184;2023-06-05T16:32:25;31.90;22.50
1297;DHT22;641;48.492;9.184;2023-06-05T16:34:50;31.90;23.10
1297;DHT22;641;48.492;9.184;2023-06-05T16:37:16;31.30;22.70
1297;DHT22;641;48.492;9.184;2023-06-05T16:39:42;30.80;23.50
1297;DHT22;641;48.492;9.184;2023-06-05T16:42:10;30.10;23.70
1297;DHT22;641;48.492;9.184;2023-06-05T16:44:35;28.70;24.50
1297;DHT22;641;48.492;9.184;2023-06-05T16:47:01;27.90;26.00
1297;DHT22;641;48.492;9.184;2023-06-05T16:49:27;27.40;26.50
1297;DHT22;641;48.492;9.184;2023-06-05T16:51:53;27.20;27.60